Time;durP1;ratioP1;P1;durP2;ratioP2;P2;SDS_P1;SDS_P2;PMS_P1;PMS_P2;Temp;Humidity;BMP_temperature;BMP_pressure;BME280_temperature;BME280_humidity;BME280_pressure;Samples;Min_cycle;Max_cycle;Signal;HPM_P1;HPM_P2
2021/09/19 00:02:25;;;;;;;6.68;3.95;;;11.40;99.90;;;;;;5065181;28;20474;-76
2021/09/19 00:04:51;;;;;;;4.18;3.80;;;11.40;99.90;;;;;;5065127;28;20074;-77
2021/09/19 00:07:16;;;;;;;4.65;3.30;;;11.40;99.90;;;;;;5050396;28;20025;-76
2021/09/19 00:09:42;;;;;;;4.03;3.60;;;11.40;99.90;;;;;;5063923;28;20029;-76
2021/09/19 00:12:08;;;;;;;4.43;3.40;;;11.40;99.90;;;;;;5064384;28;20118;-76
2021/09/19 00:14:36;;;;;;;4.38;3.97;;;11.40;99.90;;;;;;5056857;28;20029;-77
2021/09/19 00:17:02;;;;;;;4.00;3.60;;;10.90;99.90;;;;;;5060755;28;20064;-76
2021/09/19 00:19:28;;;;;;;7.20;4.38;;;10.40;99.90;;;;;;5069018;28;20040;-76
2021/09/19 00:21:53;;;;;;;5.50;5.00;;;10.40;99.90;;;;;;5067326;28;20033;-76
2021/09/19 00:24:19;;;;;;;6.63;4.70;;;10.20;99.90;;;;;;5055510;28;20031;-75
2021/09/19 00:26:45;;;;;;;4.20;3.80;;;10.30;99.90;;;;;;5068458;28;20099;-76
2021/09/19 00:29:10;;;;;;;6.00;3.38;;;10.30;99.90;;;;;;5062011;28;20052;-75
2021/09/19 00:31:36;;;;;;;4.53;4.03;;;10.30;99.90;;;;;;5061013;28;20128;-75
2021/09/19 00:34:01;;;;;;;4.20;3.15;;;10.40;99.90;;;;;;5067270;28;20072;-75
2021/09/19 00:36:27;;;;;;;4.43;3.53;;;10.50;99.90;;;;;;5055183;28;20029;-75
2021/09/19 00:38:52;;;;;;;4.93;3.50;;;10.60;99.90;;;;;;5067307;28;20075;-75
2021/09/19 00:41:18;;;;;;;4.72;3.78;;;10.60;99.90;;;;;;5067582;28;20060;-75
2021/09/19 00:43:44;;;;;;;4.25;3.80;;;10.70;99.90;;;;;;5060289;28;20474;-75
2021/09/19 00:46:09;;;;;;;4.70;3.80;;;10.80;99.90;;;;;;5061849;28;20032;-75
2021/09/19 00:48:35;;;;;;;4.30;3.83;;;10.90;99.90;;;;;;5067500;28;20478;-75
2021/09/19 00:51:02;;;;;;;4.40;3.85;;;11.00;99.90;;;;;;5066903;28;20537;-73
2021/09/19 00:53:29;;;;;;;6.53;3.95;;;10.90;99.90;;;;;;5069175;28;20394;-73
2021/09/19 00:55:57;;;;;;;5.28;3.65;;;10.90;99.90;;;;;;5054875;28;20029;-74
2021/09/19 00:58:23;;;;;;;4.40;4.10;;;10.80;99.90;;;;;;5068309;28;20103;-74
2021/09/19 01:00:49;;;;;;;5.88;3.70;;;10.90;99.90;;;;;;5054681;28;20130;-73
2021/09/19 01:03:18;;;;;;;4.32;4.00;;;10.90;99.90;;;;;;5060156;28;20106;-73
2021/09/19 01:05:45;;;;;;;5.43;4.75;;;10.80;99.90;;;;;;5074715;28;20032;-73
2021/09/19 01:08:14;;;;;;;7.40;5.28;;;10.80;99.90;;;;;;5067349;28;20025;-73
2021/09/19 01:10:40;;;;;;;9.15;5.63;;;11.00;99.90;;;;;;5067631;28;20490;-74
2021/09/19 01:13:07;;;;;;;5.80;5.30;;;11.00;99.90;;;;;;5062086;28;20032;-74
2021/09/19 01:15:33;;;;;;;5.32;4.82;;;10.80;99.90;;;;;;5061053;28;20036;-75
2021/09/19 01:17:59;;;;;;;4.82;4.18;;;10.50;99.90;;;;;;5065137;28;20032;-75
2021/09/19 01:20:25;;;;;;;5.13;4.63;;;10.10;99.90;;;;;;5066465;28;20039;-74
2021/09/19 01:22:59;;;;;;;7.15;5.13;;;10.30;99.90;;;;;;5062143;28;20501;-74
2021/09/19 01:25:25;;;;;;;4.45;4.03;;;9.90;99.90;;;;;;5058535;28;20060;-75
2021/09/19 01:27:51;;;;;;;4.40;3.85;;;9.90;99.90;;;;;;5063045;28;20059;-74
2021/09/19 01:30:16;;;;;;;5.18;4.05;;;10.00;99.90;;;;;;5060870;28;20029;-74
2021/09/19 01:32:42;;;;;;;5.55;4.05;;;10.00;99.90;;;;;;5065345;28;20037;-74
2021/09/19 01:35:10;;;;;;;4.25;3.95;;;10.00;99.90;;;;;;5067475;28;20032;-74
2021/09/19 01:37:36;;;;;;;5.72;4.03;;;10.00;99.90;;;;;;5063147;28;20478;-74
2021/09/19 01:40:02;;;;;;;4.40;4.00;;;10.10;99.90;;;;;;5060829;28;20425;-76
2021/09/19 01:42:28;;;;;;;4.20;3.70;;;10.10;99.90;;;;;;5063519;28;20021;-75
2021/09/19 01:44:54;;;;;;;4.78;4.28;;;10.20;99.90;;;;;;5054532;28;20402;-74
2021/09/19 01:47:19;;;;;;;4.32;3.60;;;10.20;99.90;;;;;;5065749;28;20027;-74
2021/09/19 01:49:49;;;;;;;4.97;3.65;;;10.10;99.90;;;;;;5069216;28;20474;-74
2021/09/19 01:52:17;;;;;;;5.60;4.82;;;10.20;99.90;;;;;;5065376;28;20009;-74
2021/09/19 01:54:42;;;;;;;7.25;5.20;;;10.20;99.90;;;;;;5053869;28;20029;-76
2021/09/19 01:57:08;;;;;;;6.25;5.50;;;10.10;99.90;;;;;;5064476;28;20025;-75
2021/09/19 01:59:34;;;;;;;9.48;7.47;;;10.10;99.90;;;;;;5064157;28;20567;-74
2021/09/19 02:02:00;;;;;;;6.78;5.68;;;10.20;99.90;;;;;;5064241;28;20025;-74
2021/09/19 02:04:25;;;;;;;9.52;7.13;;;10.30;99.90;;;;;;5068084;28;20040;-75
2021/09/19 02:06:51;;;;;;;9.88;7.60;;;10.40;99.90;;;;;;5073450;28;20016;-75
2021/09/19 02:09:16;;;;;;;7.18;6.20;;;10.50;99.90;;;;;;5065491;28;20050;-76
2021/09/19 02:11:42;;;;;;;6.97;6.28;;;10.60;99.90;;;;;;5062765;28;20028;-75
2021/09/19 02:14:07;;;;;;;7.28;6.47;;;10.80;99.90;;;;;;5058545;28;20112;-76
2021/09/19 02:16:33;;;;;;;7.60;6.70;;;10.80;99.90;;;;;;5062594;28;20074;-74
2021/09/19 02:18:59;;;;;;;7.43;6.53;;;10.90;99.90;;;;;;5066717;28;20025;-75
2021/09/19 02:21:25;;;;;;;8.63;6.72;;;11.00;99.90;;;;;;5062118;28;20036;-74
2021/09/19 02:23:51;;;;;;;9.02;7.15;;;11.10;99.90;;;;;;5055974;28;20029;-75
2021/09/19 02:26:17;;;;;;;8.35;7.18;;;11.20;99.90;;;;;;5070892;28;20390;-74
2021/09/19 02:28:43;;;;;;;9.95;6.53;;;11.20;99.90;;;;;;5057647;28;20402;-74
2021/09/19 02:31:09;;;;;;;7.78;6.78;;;11.20;99.90;;;;;;5060547;28;20027;-75
2021/09/19 02:33:34;;;;;;;8.80;6.32;;;11.20;99.90;;;;;;5073045;28;20470;-75
2021/09/19 02:36:01;;;;;;;9.07;6.60;;;11.20;99.90;;;;;;5071424;28;20021;-74
2021/09/19 02:38:27;;;;;;;7.68;5.95;;;11.30;99.90;;;;;;5070505;28;20033;-76
2021/09/19 02:40:53;;;;;;;8.82;6.60;;;11.30;99.90;;;;;;5072665;28;20027;-75
2021/09/19 02:43:20;;;;;;;8.45;6.47;;;11.30;99.90;;;;;;5059367;28;20025;-75
2021/09/19 02:45:46;;;;;;;8.63;6.90;;;11.30;99.90;;;;;;5071315;28;20025;-72
2021/09/19 02:48:11;;;;;;;9.27;6.72;;;11.30;99.90;;;;;;5070173;28;20025;-77
2021/09/19 02:50:37;;;;;;;8.63;6.80;;;11.30;99.90;;;;;;5061617;28;20470;-77
2021/09/19 02:53:03;;;;;;;10.15;7.53;;;11.40;99.90;;;;;;5060308;28;20021;-77
2021/09/19 02:55:28;;;;;;;7.85;6.65;;;11.40;99.90;;;;;;5065355;28;20467;-77
2021/09/19 02:57:54;;;;;;;9.60;6.40;;;11.40;99.90;;;;;;5068452;28;20036;-76
2021/09/19 03:00:21;;;;;;;9.07;7.15;;;11.50;99.90;;;;;;5053606;28;20032;-78
2021/09/19 03:02:47;;;;;;;10.02;7.15;;;11.50;99.90;;;;;;5059287;28;20059;-77
2021/09/19 03:05:14;;;;;;;8.23;7.03;;;11.60;99.90;;;;;;5074486;28;20036;-76
2021/09/19 03:07:39;;;;;;;8.32;7.15;;;11.50;99.90;;;;;;5057874;28;20429;-75
2021/09/19 03:10:07;;;;;;;9.30;7.47;;;11.60;99.90;;;;;;5062893;28;20024;-75
2021/09/19 03:12:32;;;;;;;8.10;7.18;;;11.60;99.90;;;;;;5065497;28;20140;-76
2021/09/19 03:14:58;;;;;;;10.63;7.65;;;11.60;99.90;;;;;;5061730;28;20107;-75
2021/09/19 03:17:23;;;;;;;10.40;7.80;;;11.60;99.90;;;;;;5058749;28;20032;-75
2021/09/19 03:19:49;;;;;;;9.57;7.57;;;11.60;99.90;;;;;;5062874;28;20116;-76
2021/09/19 03:22:14;;;;;;;8.95;7.60;;;11.60;99.90;;;;;;5064075;28;20119;-75
2021/09/19 03:24:40;;;;;;;8.77;7.93;;;11.60;99.90;;;;;;5060143;28;20039;-76
2021/09/19 03:27:05;;;;;;;9.32;7.68;;;11.60;99.90;;;;;;5058847;28;20100;-76
2021/09/19 03:29:31;;;;;;;9.35;7.20;;;11.60;99.90;;;;;;5061448;28;20470;-76
2021/09/19 03:31:57;;;;;;;9.45;8.43;;;11.60;99.90;;;;;;5065334;28;20027;-76
2021/09/19 03:34:22;;;;;;;9.95;8.20;;;11.50;99.90;;;;;;5061234;28;20024;-76
2021/09/19 03:36:48;;;;;;;8.27;7.47;;;11.50;99.90;;;;;;5057369;28;20024;-76
2021/09/19 03:39:13;;;;;;;10.05;8.13;;;11.40;99.90;;;;;;5062535;28;20033;-77
2021/09/19 03:41:39;;;;;;;9.13;7.55;;;11.40;99.90;;;;;;5065248;28;20113;-77
2021/09/19 03:44:06;;;;;;;10.82;7.53;;;11.40;99.90;;;;;;5051942;28;20175;-76
2021/09/19 03:46:32;;;;;;;8.95;7.68;;;11.40;99.90;;;;;;5064123;28;20024;-77
2021/09/19 03:48:57;;;;;;;9.43;7.38;;;11.30;99.90;;;;;;5051751;28;20021;-77
2021/09/19 03:51:23;;;;;;;7.93;7.07;;;11.40;99.90;;;;;;5063563;28;20051;-76
2021/09/19 03:53:48;;;;;;;8.20;6.95;;;11.40;99.90;;;;;;5061234;28;20039;-77
2021/09/19 03:56:15;;;;;;;9.10;7.43;;;11.30;99.90;;;;;;5057088;28;20032;-76
2021/09/19 03:58:40;;;;;;;8.07;7.22;;;11.30;99.90;;;;;;5063375;28;20029;-77
2021/09/19 04:01:06;;;;;;;8.75;6.40;;;11.40;99.90;;;;;;5068040;28;20024;-77
2021/09/19 04:03:32;;;;;;;8.05;7.25;;;11.30;99.90;;;;;;5071507;28;20020;-77
2021/09/19 04:05:57;;;;;;;8.10;6.60;;;11.30;99.90;;;;;;5069098;28;20027;-77
2021/09/19 04:08:23;;;;;;;8.10;6.60;;;11.30;99.90;;;;;;5060152;28;20726;-77
2021/09/19 04:10:48;;;;;;;7.40;6.45;;;11.30;99.90;;;;;;5058537;28;20466;-76
2021/09/19 04:13:14;;;;;;;8.23;6.70;;;11.30;99.90;;;;;;5062555;28;20033;-78
2021/09/19 04:15:41;;;;;;;9.93;6.70;;;11.30;99.90;;;;;;5063930;28;20159;-77
2021/09/19 04:18:07;;;;;;;8.18;7.10;;;11.30;99.90;;;;;;5059508;28;20032;-77
2021/09/19 04:20:33;;;;;;;9.27;6.90;;;11.30;99.90;;;;;;5069108;28;20029;-78
2021/09/19 04:22:58;;;;;;;8.68;7.30;;;11.20;99.90;;;;;;5061399;28;20483;-78
2021/09/19 04:25:24;;;;;;;8.88;7.47;;;11.10;99.90;;;;;;5058045;28;20511;-78
2021/09/19 04:27:49;;;;;;;8.15;7.05;;;11.10;99.90;;;;;;5063207;28;20109;-78
2021/09/19 04:30:15;;;;;;;8.70;7.05;;;11.10;99.90;;;;;;5065928;28;20017;-77
2021/09/19 04:32:41;;;;;;;8.88;6.88;;;11.10;99.90;;;;;;5061526;28;20017;-77
2021/09/19 04:35:07;;;;;;;8.80;6.75;;;11.10;99.90;;;;;;5064747;28;20037;-76
2021/09/19 04:37:32;;;;;;;7.45;6.45;;;11.10;99.90;;;;;;5058685;28;20116;-77
2021/09/19 04:39:58;;;;;;;9.77;7.03;;;11.00;99.90;;;;;;5054759;28;20108;-77
2021/09/19 04:42:24;;;;;;;10.10;6.82;;;11.00;99.90;;;;;;5060215;28;20067;-76
2021/09/19 04:44:50;;;;;;;9.90;7.20;;;10.90;99.90;;;;;;5057947;28;20022;-77
2021/09/19 04:47:15;;;;;;;9.07;7.70;;;10.80;99.90;;;;;;5061186;28;20044;-77
2021/09/19 04:49:41;;;;;;;7.55;6.72;;;10.80;99.90;;;;;;5064951;28;20467;-76
2021/09/19 04:52:07;;;;;;;8.32;7.50;;;10.80;99.90;;;;;;5059525;28;20099;-76
2021/09/19 04:54:32;;;;;;;8.25;7.32;;;10.70;99.90;;;;;;5057675;28;20045;-77
2021/09/19 04:56:59;;;;;;;8.63;6.88;;;10.80;99.90;;;;;;5061366;28;20032;-76
2021/09/19 04:59:25;;;;;;;8.27;7.32;;;10.80;99.90;;;;;;5063378;28;20063;-76
2021/09/19 05:01:50;;;;;;;7.57;6.78;;;10.80;99.90;;;;;;5060840;28;20060;-76
2021/09/19 05:04:16;;;;;;;7.03;6.32;;;10.60;99.90;;;;;;5062064;28;20071;-75
2021/09/19 05:06:42;;;;;;;8.50;7.57;;;10.60;99.90;;;;;;5066920;28;20171;-74
2021/09/19 05:09:07;;;;;;;7.65;6.82;;;10.70;99.90;;;;;;5056182;28;20029;-75
2021/09/19 05:11:33;;;;;;;8.32;6.70;;;10.60;99.90;;;;;;5066309;28;20036;-75
2021/09/19 05:13:59;;;;;;;7.65;6.88;;;10.70;99.90;;;;;;5054564;28;20390;-75
2021/09/19 05:16:26;;;;;;;8.73;6.88;;;10.70;99.90;;;;;;5062478;28;20478;-73
2021/09/19 05:18:52;;;;;;;8.18;6.70;;;10.70;99.90;;;;;;5064089;28;20032;-73
2021/09/19 05:21:18;;;;;;;7.97;6.60;;;10.70;99.90;;;;;;5063289;28;20096;-72
2021/09/19 05:23:43;;;;;;;9.15;7.13;;;10.70;99.90;;;;;;5059795;28;20117;-72
2021/09/19 05:26:09;;;;;;;9.40;7.30;;;10.70;99.90;;;;;;5054781;28;20379;-71
2021/09/19 05:28:35;;;;;;;7.25;6.28;;;10.80;99.90;;;;;;5055693;28;20715;-74
2021/09/19 05:31:00;;;;;;;7.78;6.35;;;10.80;99.90;;;;;;5066155;28;20021;-76
2021/09/19 05:33:26;;;;;;;8.38;6.55;;;10.80;99.90;;;;;;5054632;28;20033;-75
2021/09/19 05:35:51;;;;;;;7.70;6.70;;;10.80;99.90;;;;;;5064553;28;20132;-75
2021/09/19 05:38:18;;;;;;;7.25;6.05;;;10.80;99.90;;;;;;5064521;28;20029;-75
2021/09/19 05:40:44;;;;;;;7.43;6.35;;;10.80;99.90;;;;;;5073637;28;20086;-76
2021/09/19 05:43:09;;;;;;;7.22;6.15;;;10.90;99.90;;;;;;5059884;28;20033;-75
2021/09/19 05:45:35;;;;;;;6.68;5.63;;;10.90;99.90;;;;;;5061086;28;20067;-75
2021/09/19 05:48:01;;;;;;;7.30;5.70;;;10.90;99.90;;;;;;5060824;28;20024;-73
2021/09/19 05:50:27;;;;;;;7.18;6.05;;;11.00;99.90;;;;;;5066764;28;20021;-74
2021/09/19 05:52:52;;;;;;;7.18;6.03;;;11.10;99.90;;;;;;5061928;28;20436;-74
2021/09/19 05:55:18;;;;;;;6.70;5.90;;;11.20;99.90;;;;;;5070148;28;20025;-75
2021/09/19 05:57:44;;;;;;;6.25;5.40;;;11.20;99.90;;;;;;5071054;28;20115;-74
2021/09/19 06:00:10;;;;;;;6.13;5.53;;;11.30;99.90;;;;;;5072205;28;20052;-75
2021/09/19 06:02:36;;;;;;;7.20;6.40;;;11.40;99.90;;;;;;5072205;28;20032;-74
2021/09/19 06:05:02;;;;;;;6.80;5.97;;;11.50;99.90;;;;;;5051437;28;20032;-74
2021/09/19 06:07:28;;;;;;;7.90;5.88;;;11.40;99.90;;;;;;5068751;28;20151;-74
2021/09/19 06:09:53;;;;;;;7.50;6.07;;;11.50;99.90;;;;;;5066012;28;20103;-74
2021/09/19 06:12:19;;;;;;;5.75;5.18;;;11.60;99.90;;;;;;5073039;28;20058;-75
2021/09/19 06:14:45;;;;;;;6.72;5.70;;;11.60;99.90;;;;;;5069447;28;20043;-75
2021/09/19 06:17:10;;;;;;;6.68;5.97;;;11.70;99.90;;;;;;5056839;28;20024;-74
2021/09/19 06:19:36;;;;;;;7.00;5.72;;;11.70;99.90;;;;;;5065661;28;20107;-74
2021/09/19 06:22:02;;;;;;;5.35;4.85;;;11.70;99.90;;;;;;5070140;28;20116;-74
2021/09/19 06:24:29;;;;;;;6.07;5.05;;;11.80;99.90;;;;;;5063057;28;20567;-74
2021/09/19 06:26:56;;;;;;;6.45;5.70;;;12.00;99.90;;;;;;5062530;28;20031;-76
2021/09/19 06:29:22;;;;;;;7.25;5.80;;;12.00;99.90;;;;;;5065847;28;20029;-74
2021/09/19 06:31:47;;;;;;;8.25;5.30;;;12.00;99.90;;;;;;5058811;28;20033;-75
2021/09/19 06:34:13;;;;;;;5.72;5.13;;;12.00;99.90;;;;;;5052853;28;20036;-75
2021/09/19 06:36:39;;;;;;;5.90;5.30;;;12.10;99.90;;;;;;5052858;28;20029;-75
2021/09/19 06:39:04;;;;;;;5.38;4.88;;;12.10;99.90;;;;;;5051503;28;20071;-74
2021/09/19 06:41:30;;;;;;;5.57;5.07;;;12.30;99.90;;;;;;5052192;28;20036;-74
2021/09/19 06:43:55;;;;;;;6.72;4.93;;;12.30;99.90;;;;;;5062403;28;21902;-75
2021/09/19 06:46:23;;;;;;;5.18;4.68;;;12.30;99.90;;;;;;5071503;28;20025;-75
2021/09/19 06:48:48;;;;;;;5.38;4.88;;;12.30;99.90;;;;;;5072401;28;20016;-74
2021/09/19 06:51:14;;;;;;;9.15;4.65;;;12.40;99.90;;;;;;5066145;28;20512;-74
2021/09/19 06:53:40;;;;;;;5.18;4.70;;;12.50;99.90;;;;;;5059443;28;20525;-74
2021/09/19 06:56:05;;;;;;;5.00;4.50;;;12.50;99.90;;;;;;5070465;28;20017;-74
2021/09/19 06:58:31;;;;;;;4.82;4.30;;;12.60;99.90;;;;;;5072467;28;20016;-73
2021/09/19 07:00:57;;;;;;;4.82;4.35;;;12.70;99.90;;;;;;5069199;28;20016;-74
2021/09/19 07:03:23;;;;;;;7.80;5.13;;;12.70;99.90;;;;;;5069110;28;20024;-74
2021/09/19 07:05:48;;;;;;;5.15;4.25;;;12.80;99.90;;;;;;5067848;28;20442;-75
2021/09/19 07:08:14;;;;;;;4.50;4.10;;;12.90;99.90;;;;;;5067400;28;20033;-74
2021/09/19 07:10:40;;;;;;;4.90;4.40;;;12.80;99.90;;;;;;5072932;28;20031;-74
2021/09/19 07:13:05;;;;;;;4.78;4.00;;;12.90;99.90;;;;;;5069041;28;20020;-76
2021/09/19 07:15:31;;;;;;;4.82;3.72;;;13.00;99.90;;;;;;5071948;28;20093;-74
2021/09/19 07:17:56;;;;;;;4.40;4.00;;;13.00;99.90;;;;;;5071009;28;20022;-74
2021/09/19 07:20:22;;;;;;;5.03;4.53;;;13.10;99.90;;;;;;5070578;28;20089;-74
2021/09/19 07:22:47;;;;;;;4.10;3.70;;;13.10;99.90;;;;;;5068949;28;20074;-74
2021/09/19 07:25:15;;;;;;;4.10;3.80;;;13.20;99.90;;;;;;5075670;28;20051;-74
2021/09/19 07:27:41;;;;;;;4.13;3.70;;;13.20;99.90;;;;;;5072707;28;20036;-74
2021/09/19 07:30:07;;;;;;;4.95;3.63;;;13.30;99.90;;;;;;5070402;28;20031;-75
2021/09/19 07:32:34;;;;;;;4.20;3.80;;;13.30;99.90;;;;;;5070368;28;20017;-74
2021/09/19 07:35:00;;;;;;;5.10;3.42;;;13.40;99.90;;;;;;5073044;28;20032;-74
2021/09/19 07:37:26;;;;;;;3.72;3.42;;;13.60;99.90;;;;;;5075940;28;20413;-74
2021/09/19 07:39:52;;;;;;;4.00;3.13;;;13.50;99.90;;;;;;5075949;28;20032;-76
2021/09/19 07:42:18;;;;;;;5.95;3.38;;;13.70;99.90;;;;;;5068047;28;20063;-74
2021/09/19 07:44:44;;;;;;;3.67;3.38;;;13.80;99.90;;;;;;5075066;28;20129;-74
2021/09/19 07:47:10;;;;;;;4.32;3.05;;;13.80;99.90;;;;;;5072136;28;20405;-73
2021/09/19 07:49:36;;;;;;;3.40;2.90;;;13.90;99.90;;;;;;5068904;28;20024;-76
2021/09/19 07:52:04;;;;;;;3.97;3.08;;;13.90;99.90;;;;;;5077257;28;20020;-75
2021/09/19 07:54:30;;;;;;;3.22;3.00;;;14.00;99.90;;;;;;5070058;28;20154;-74
2021/09/19 07:56:55;;;;;;;3.97;2.92;;;14.00;99.90;;;;;;5066516;28;20052;-75
2021/09/19 07:59:21;;;;;;;3.95;2.95;;;14.10;99.90;;;;;;5065531;28;20029;-74
2021/09/19 08:01:46;;;;;;;3.85;2.63;;;14.30;99.90;;;;;;5081903;28;20028;-75
2021/09/19 08:04:12;;;;;;;3.10;2.80;;;14.30;99.90;;;;;;5078451;28;20117;-75
2021/09/19 08:06:37;;;;;;;2.80;2.50;;;14.10;99.90;;;;;;5070346;28;20542;-75
2021/09/19 08:09:03;;;;;;;2.88;2.65;;;14.00;99.90;;;;;;5070282;28;20021;-75
2021/09/19 08:11:29;;;;;;;2.92;2.70;;;14.00;99.90;;;;;;5067083;28;20028;-74
2021/09/19 08:14:05;;;;;;;2.78;2.50;;;14.00;99.90;;;;;;5063098;28;20035;-74
2021/09/19 08:16:32;;;;;;;;;;;14.10;99.90;;;;;;5059428;28;20032;-75
2021/09/19 08:18:57;;;;;;;2.67;2.25;;;14.10;99.90;;;;;;5064081;28;19912;-75
2021/09/19 08:21:23;;;;;;;2.92;2.40;;;14.30;99.90;;;;;;5070929;28;20462;-74
2021/09/19 08:23:49;;;;;;;2.85;2.40;;;14.30;99.90;;;;;;5060868;28;20029;-75
2021/09/19 08:26:14;;;;;;;2.88;2.58;;;14.40;99.90;;;;;;5068680;28;20047;-74
2021/09/19 08:28:40;;;;;;;3.08;2.75;;;14.50;99.90;;;;;;5064180;28;20516;-74
2021/09/19 08:31:05;;;;;;;3.35;2.70;;;14.90;99.90;;;;;;5066796;28;20028;-74
2021/09/19 08:33:31;;;;;;;4.18;2.83;;;15.00;99.90;;;;;;5071175;28;20081;-74
2021/09/19 08:35:59;;;;;;;3.40;2.80;;;15.10;99.90;;;;;;5056491;28;20037;-74
2021/09/19 08:38:25;;;;;;;2.85;2.50;;;15.20;99.90;;;;;;5071396;28;20423;-74
2021/09/19 08:40:51;;;;;;;2.90;2.67;;;15.10;99.90;;;;;;5054868;28;20033;-75
2021/09/19 08:43:17;;;;;;;3.38;3.08;;;15.10;99.90;;;;;;5055061;28;20056;-74
2021/09/19 08:45:47;;;;;;;3.15;2.70;;;15.00;99.90;;;;;;5054988;28;20035;-74
2021/09/19 08:48:18;;;;;;;3.95;3.17;;;15.00;99.90;;;;;;5054940;28;20021;-74
2021/09/19 08:50:45;;;;;;;3.90;2.88;;;15.10;99.90;;;;;;5065449;28;20379;-74
2021/09/19 08:53:12;;;;;;;4.18;2.90;;;15.20;99.90;;;;;;5061445;28;20024;-74
2021/09/19 08:55:38;;;;;;;2.80;2.58;;;15.20;99.90;;;;;;5063835;28;20394;-74
2021/09/19 08:58:03;;;;;;;3.10;2.60;;;15.20;99.90;;;;;;5068251;28;20025;-74
2021/09/19 09:00:47;;;;;;;3.33;3.03;;;15.30;99.90;;;;;;5054808;28;20117;-74
2021/09/19 09:03:16;;;;;;;3.15;2.85;;;15.20;99.90;;;;;;5068617;28;20031;-74
2021/09/19 09:05:42;;;;;;;2.58;2.38;;;15.20;99.90;;;;;;5070126;28;20021;-75
2021/09/19 09:08:09;;;;;;;3.38;2.83;;;15.20;99.90;;;;;;5064402;28;20037;-75
2021/09/19 09:10:42;;;;;;;2.80;2.60;;;15.20;99.90;;;;;;5072858;28;20078;-74
2021/09/19 09:13:14;;;;;;;3.10;2.80;;;15.20;99.90;;;;;;5081938;28;20070;-74
2021/09/19 09:15:48;;;;;;;7.65;5.57;;;15.10;99.90;;;;;;5072397;28;20025;-74
2021/09/19 09:18:27;;;;;;;44.80;21.08;;;15.00;99.90;;;;;;5067546;28;20056;-76
2021/09/19 09:20:59;;;;;;;27.50;16.60;;;15.10;99.90;;;;;;5065155;28;20024;-74
2021/09/19 09:23:35;;;;;;;8.80;6.82;;;15.20;99.90;;;;;;5079033;28;20103;-74
2021/09/19 09:26:31;;;;;;;6.75;5.78;;;15.20;99.90;;;;;;5075005;28;20359;-74
2021/09/19 09:29:03;;;;;;;4.13;3.72;;;15.30;99.90;;;;;;5074165;28;20033;-74
2021/09/19 09:31:38;;;;;;;3.30;3.00;;;15.30;99.90;;;;;;5065943;28;20079;-74
2021/09/19 09:34:12;;;;;;;3.55;2.88;;;15.20;99.90;;;;;;5066067;28;20025;-74
2021/09/19 09:36:43;;;;;;;4.18;2.85;;;15.30;99.90;;;;;;5071398;28;20035;-74
2021/09/19 09:39:29;;;;;;;3.03;2.72;;;15.30;99.90;;;;;;5066112;28;20099;-75
2021/09/19 09:42:15;;;;;;;3.08;2.83;;;15.30;99.90;;;;;;5068453;28;20025;-75
2021/09/19 09:44:47;;;;;;;3.20;2.90;;;15.40;99.90;;;;;;5076295;28;20016;-75
2021/09/19 09:47:21;;;;;;;2.92;2.63;;;15.50;99.90;;;;;;5078127;28;20505;-75
2021/09/19 09:49:50;;;;;;;2.85;2.60;;;15.70;99.90;;;;;;5074060;28;20088;-75
2021/09/19 09:52:23;;;;;;;3.38;2.83;;;15.60;99.90;;;;;;5072933;28;20017;-75
2021/09/19 09:54:56;;;;;;;3.30;2.92;;;15.70;99.90;;;;;;5076641;28;20486;-75
2021/09/19 09:57:34;;;;;;;3.88;2.78;;;15.60;99.90;;;;;;5077101;28;20028;-75
2021/09/19 10:00:10;;;;;;;3.75;3.45;;;15.60;99.90;;;;;;5069689;28;20535;-75
2021/09/19 10:02:40;;;;;;;5.32;4.22;;;15.60;99.90;;;;;;5069364;28;20025;-75
2021/09/19 10:05:07;;;;;;;4.72;4.07;;;15.30;99.90;;;;;;5076699;28;20020;-75
2021/09/19 10:07:39;;;;;;;4.57;4.18;;;15.20;99.90;;;;;;5076472;28;20073;-75
2021/09/19 10:10:07;;;;;;;4.63;4.18;;;15.20;99.90;;;;;;5078996;28;20241;-75
2021/09/19 10:12:34;;;;;;;4.43;4.03;;;15.10;99.90;;;;;;5069929;28;20017;-75
2021/09/19 10:14:59;;;;;;;5.75;4.30;;;15.20;99.90;;;;;;5083166;28;20563;-74
2021/09/19 10:17:31;;;;;;;4.03;3.63;;;15.40;99.90;;;;;;5069670;28;20044;-74
2021/09/19 10:19:58;;;;;;;4.35;3.95;;;15.50;99.90;;;;;;5077176;28;20016;-75
2021/09/19 10:22:31;;;;;;;4.38;3.97;;;15.60;99.90;;;;;;5071014;28;20033;-75
2021/09/19 10:24:57;;;;;;;3.78;3.47;;;15.80;99.90;;;;;;5075813;28;20090;-75
2021/09/19 10:27:31;;;;;;;4.32;3.65;;;16.00;99.90;;;;;;5076113;28;20503;-74
2021/09/19 10:30:06;;;;;;;4.65;3.80;;;15.90;99.90;;;;;;5076878;28;20016;-75
2021/09/19 10:32:38;;;;;;;4.03;3.30;;;16.00;99.90;;;;;;5069831;28;20024;-75
2021/09/19 10:35:15;;;;;;;3.95;3.65;;;16.00;99.90;;;;;;5073203;28;20364;-74
2021/09/19 10:37:51;;;;;;;3.53;3.20;;;16.00;99.90;;;;;;5072274;28;20098;-75
2021/09/19 10:40:37;;;;;;;3.60;3.30;;;16.00;99.90;;;;;;5080458;28;20025;-75
2021/09/19 10:43:06;;;;;;;3.97;3.67;;;16.00;99.90;;;;;;5077698;28;20031;-75
2021/09/19 10:45:42;;;;;;;4.07;2.97;;;16.20;99.90;;;;;;5079572;28;20028;-75
2021/09/19 10:48:15;;;;;;;3.20;2.90;;;16.40;99.90;;;;;;5080124;28;20031;-75
2021/09/19 10:50:43;;;;;;;3.20;2.90;;;16.40;99.90;;;;;;5073574;28;20344;-75
2021/09/19 10:53:26;;;;;;;3.30;3.00;;;16.50;99.90;;;;;;5075896;28;20482;-75
2021/09/19 10:55:56;;;;;;;3.50;3.20;;;16.70;99.90;;;;;;5072553;28;20409;-75
2021/09/19 10:58:33;;;;;;;2.97;2.67;;;16.80;99.90;;;;;;5066863;28;20059;-75
2021/09/19 11:01:08;;;;;;;2.60;2.40;;;16.70;99.90;;;;;;5064704;28;20025;-74
2021/09/19 11:03:33;;;;;;;3.15;2.85;;;16.60;99.90;;;;;;5070429;28;20032;-74
2021/09/19 11:05:59;;;;;;;3.28;2.97;;;16.70;99.90;;;;;;5066622;28;20029;-75
2021/09/19 11:08:25;;;;;;;2.90;2.67;;;16.50;99.90;;;;;;5076114;28;20036;-75
2021/09/19 11:10:51;;;;;;;3.13;2.83;;;16.10;99.90;;;;;;5070936;28;20024;-75
2021/09/19 11:13:22;;;;;;;3.40;3.00;;;16.00;99.90;;;;;;5070795;28;20158;-75
2021/09/19 11:16:03;;;;;;;3.33;2.92;;;15.90;99.90;;;;;;5077440;28;20028;-75
2021/09/19 11:18:30;;;;;;;2.83;2.60;;;15.90;99.90;;;;;;5068549;28;20505;-75
2021/09/19 11:21:25;;;;;;;3.13;2.83;;;16.00;99.90;;;;;;5068709;28;20107;-75
2021/09/19 11:23:52;;;;;;;3.53;3.22;;;16.10;99.90;;;;;;5052990;28;20040;-75
2021/09/19 11:26:26;;;;;;;3.33;2.97;;;16.00;99.90;;;;;;5081383;28;20381;-75
2021/09/19 11:28:58;;;;;;;2.92;2.72;;;15.90;99.90;;;;;;5079766;28;20117;-75
2021/09/19 11:31:24;;;;;;;3.10;2.78;;;16.00;99.90;;;;;;5069071;28;20023;-75
2021/09/19 11:33:49;;;;;;;3.65;2.88;;;16.00;99.90;;;;;;5068973;28;20047;-75
2021/09/19 11:36:18;;;;;;;2.85;2.63;;;16.10;99.90;;;;;;5081287;28;20032;-75
2021/09/19 11:38:49;;;;;;;3.75;2.90;;;16.10;99.90;;;;;;5067983;28;20028;-75
2021/09/19 11:41:16;;;;;;;2.80;2.58;;;16.00;99.90;;;;;;5082915;28;20506;-74
2021/09/19 11:43:43;;;;;;;3.08;2.78;;;16.10;99.90;;;;;;5077550;28;20024;-75
2021/09/19 11:46:11;;;;;;;3.03;2.63;;;16.20;99.90;;;;;;5077869;28;20028;-75
2021/09/19 11:48:38;;;;;;;3.30;2.80;;;16.30;99.90;;;;;;5071884;28;20028;-75
2021/09/19 11:51:04;;;;;;;2.70;2.50;;;16.40;99.90;;;;;;5079088;28;20022;-76
2021/09/19 11:53:30;;;;;;;2.80;2.60;;;16.30;99.90;;;;;;5051814;28;20418;-75
2021/09/19 11:55:57;;;;;;;3.28;2.97;;;16.30;99.90;;;;;;5064703;28;20490;-75
2021/09/19 11:58:23;;;;;;;3.58;2.53;;;16.30;99.90;;;;;;5058527;28;20390;-75
2021/09/19 12:00:54;;;;;;;2.80;2.60;;;16.30;99.90;;;;;;5056744;28;20025;-74
2021/09/19 12:03:20;;;;;;;2.40;2.20;;;16.20;99.90;;;;;;5057564;28;20020;-74
2021/09/19 12:06:00;;;;;;;2.50;2.30;;;16.20;99.90;;;;;;5070187;28;20391;-75
2021/09/19 12:08:27;;;;;;;2.92;2.40;;;16.30;99.90;;;;;;5062590;28;20025;-75
2021/09/19 12:10:54;;;;;;;3.35;2.72;;;16.10;99.90;;;;;;5068805;28;20410;-73
2021/09/19 12:13:27;;;;;;;3.10;2.05;;;16.20;99.90;;;;;;5068327;28;20563;-74
2021/09/19 12:16:02;;;;;;;2.97;2.15;;;16.30;99.90;;;;;;5068619;28;20449;-74
2021/09/19 12:18:30;;;;;;;2.67;2.47;;;16.10;99.90;;;;;;5060501;28;20032;-74
2021/09/19 12:20:58;;;;;;;5.47;2.33;;;16.20;99.90;;;;;;5052062;28;20060;-74
2021/09/19 12:23:24;;;;;;;2.40;2.20;;;16.20;99.90;;;;;;5054574;28;20029;-75
2021/09/19 12:25:51;;;;;;;2.60;2.40;;;16.30;99.90;;;;;;5059550;28;20352;-75
2021/09/19 12:28:27;;;;;;;2.70;2.38;;;16.40;99.90;;;;;;5073301;28;20060;-75
2021/09/19 12:30:53;;;;;;;2.90;2.50;;;16.40;99.90;;;;;;5067685;28;20029;-75
2021/09/19 12:33:19;;;;;;;3.67;2.83;;;16.50;99.90;;;;;;5068640;28;20058;-74
2021/09/19 12:35:44;;;;;;;3.65;2.85;;;16.40;99.90;;;;;;5067332;28;20141;-75
2021/09/19 12:38:13;;;;;;;3.85;3.50;;;16.20;99.90;;;;;;5055264;28;20479;-74
2021/09/19 12:40:40;;;;;;;3.15;2.83;;;16.20;99.90;;;;;;5055009;28;20025;-74
2021/09/19 12:43:06;;;;;;;3.30;3.00;;;16.30;99.90;;;;;;5055119;28;20029;-74
2021/09/19 12:45:31;;;;;;;5.30;3.30;;;16.30;99.90;;;;;;5054939;28;20122;-74
2021/09/19 12:47:57;;;;;;;4.03;3.13;;;16.30;99.90;;;;;;5054991;28;20533;-74
2021/09/19 12:50:25;;;;;;;4.45;3.15;;;16.20;99.90;;;;;;5060655;28;20036;-74